sensor_id;sensor_type;location;lat;lon;timestamp;P1;durP1;ratioP1;P2;durP2;ratioP2
50102;SDS011;35993;52.604;10.078;2023-01-24T00:00:27;21.77;;;10.90;;
50102;SDS011;35993;52.604;10.078;2023-01-24T00:02:52;21.40;;;11.47;;
50102;SDS011;35993;52.604;10.078;2023-01-24T00:05:19;20.85;;;11.77;;
50102;SDS011;35993;52.604;10.078;2023-01-24T00:07:44;23.42;;;11.82;;
50102;SDS011;35993;52.604;10.078;2023-01-24T00:10:11;22.38;;;11.38;;
50102;SDS011;35993;52.604;10.078;2023-01-24T00:12:38;21.13;;;11.93;;
50102;SDS011;35993;52.604;10.078;2023-01-24T00:15:03;23.63;;;11.50;;
50102;SDS011;35993;52.604;10.078;2023-01-24T00:17:30;22.13;;;11.20;;
50102;SDS011;35993;52.604;10.078;2023-01-24T00:19:56;23.37;;;11.57;;
50102;SDS011;35993;52.604;10.078;2023-01-24T00:22:21;23.10;;;12.32;;
50102;SDS011;35993;52.604;10.078;2023-01-24T00:24:47;23.27;;;11.60;;
50102;SDS011;35993;52.604;10.078;2023-01-24T00:27:14;22.58;;;11.15;;
50102;SDS011;35993;52.604;10.078;2023-01-24T00:29:41;22.00;;;11.27;;
50102;SDS011;35993;52.604;10.078;2023-01-24T00:32:06;25.52;;;12.15;;
50102;SDS011;35993;52.604;10.078;2023-01-24T00:34:32;20.42;;;10.77;;
50102;SDS011;35993;52.604;10.078;2023-01-24T00:36:58;20.57;;;11.13;;
50102;SDS011;35993;52.604;10.078;2023-01-24T00:39:24;26.50;;;13.47;;
50102;SDS011;35993;52.604;10.078;2023-01-24T00:41:52;26.63;;;12.88;;
50102;SDS011;35993;52.604;10.078;2023-01-24T00:44:18;22.90;;;12.23;;
50102;SDS011;35993;52.604;10.078;2023-01-24T00:46:46;23.52;;;12.00;;
50102;SDS011;35993;52.604;10.078;2023-01-24T00:49:11;23.35;;;12.32;;
50102;SDS011;35993;52.604;10.078;2023-01-24T00:51:37;27.45;;;12.88;;
50102;SDS011;35993;52.604;10.078;2023-01-24T00:54:03;21.90;;;11.30;;
50102;SDS011;35993;52.604;10.078;2023-01-24T00:56:28;24.23;;;12.13;;
50102;SDS011;35993;52.604;10.078;2023-01-24T00:58:54;25.80;;;11.57;;
50102;SDS011;35993;52.604;10.078;2023-01-24T01:01:20;21.77;;;11.17;;
50102;SDS011;35993;52.604;10.078;2023-01-24T01:03:46;20.10;;;11.00;;
50102;SDS011;35993;52.604;10.078;2023-01-24T01:06:12;22.73;;;11.37;;
50102;SDS011;35993;52.604;10.078;2023-01-24T01:08:40;21.33;;;11.90;;
50102;SDS011;35993;52.604;10.078;2023-01-24T01:11:06;22.02;;;11.70;;
50102;SDS011;35993;52.604;10.078;2023-01-24T01:13:32;22.03;;;11.30;;
50102;SDS011;35993;52.604;10.078;2023-01-24T01:18:34;22.00;;;10.73;;
50102;SDS011;35993;52.604;10.078;2023-01-24T01:21:00;22.97;;;11.80;;
50102;SDS011;35993;52.604;10.078;2023-01-24T01:23:26;24.60;;;12.03;;
50102;SDS011;35993;52.604;10.078;2023-01-24T01:25:52;21.48;;;10.88;;
50102;SDS011;35993;52.604;10.078;2023-01-24T01:28:17;20.70;;;11.07;;
50102;SDS011;35993;52.604;10.078;2023-01-24T01:30:48;23.23;;;11.27;;
50102;SDS011;35993;52.604;10.078;2023-01-24T01:33:17;22.70;;;11.60;;
50102;SDS011;35993;52.604;10.078;2023-01-24T01:35:42;23.10;;;11.37;;
50102;SDS011;35993;52.604;10.078;2023-01-24T01:38:08;21.60;;;11.30;;
50102;SDS011;35993;52.604;10.078;2023-01-24T01:40:35;22.23;;;12.02;;
50102;SDS011;35993;52.604;10.078;2023-01-24T01:43:01;22.03;;;11.60;;
50102;SDS011;35993;52.604;10.078;2023-01-24T01:48:01;24.13;;;11.37;;
50102;SDS011;35993;52.604;10.078;2023-01-24T01:50:37;23.80;;;12.13;;
50102;SDS011;35993;52.604;10.078;2023-01-24T01:53:09;21.57;;;11.17;;
50102;SDS011;35993;52.604;10.078;2023-01-24T01:55:38;21.43;;;10.87;;
50102;SDS011;35993;52.604;10.078;2023-01-24T01:58:11;21.60;;;11.50;;
50102;SDS011;35993;52.604;10.078;2023-01-24T02:00:37;19.80;;;10.45;;
50102;SDS011;35993;52.604;10.078;2023-01-24T02:03:09;20.70;;;10.88;;
50102;SDS011;35993;52.604;10.078;2023-01-24T02:05:56;21.13;;;10.93;;
50102;SDS011;35993;52.604;10.078;2023-01-24T02:08:23;20.53;;;10.73;;
50102;SDS011;35993;52.604;10.078;2023-01-24T02:10:52;19.30;;;10.87;;
50102;SDS011;35993;52.604;10.078;2023-01-24T02:13:40;22.03;;;11.37;;
50102;SDS011;35993;52.604;10.078;2023-01-24T02:16:09;19.97;;;10.80;;
50102;SDS011;35993;52.604;10.078;2023-01-24T02:18:38;18.73;;;10.43;;
50102;SDS011;35993;52.604;10.078;2023-01-24T02:21:09;22.13;;;11.17;;
50102;SDS011;35993;52.604;10.078;2023-01-24T02:26:13;22.63;;;10.73;;
50102;SDS011;35993;52.604;10.078;2023-01-24T02:29:02;22.58;;;10.98;;
50102;SDS011;35993;52.604;10.078;2023-01-24T02:34:28;19.10;;;9.90;;
50102;SDS011;35993;52.604;10.078;2023-01-24T02:36:58;21.20;;;10.77;;
50102;SDS011;35993;52.604;10.078;2023-01-24T02:39:29;20.03;;;11.03;;
50102;SDS011;35993;52.604;10.078;2023-01-24T02:42:06;18.50;;;9.98;;
50102;SDS011;35993;52.604;10.078;2023-01-24T02:44:45;19.07;;;9.73;;
50102;SDS011;35993;52.604;10.078;2023-01-24T02:47:16;17.77;;;10.25;;
50102;SDS011;35993;52.604;10.078;2023-01-24T02:49:42;20.37;;;10.37;;
50102;SDS011;35993;52.604;10.078;2023-01-24T02:52:09;21.30;;;10.07;;
50102;SDS011;35993;52.604;10.078;2023-01-24T02:54:57;16.73;;;9.07;;
50102;SDS011;35993;52.604;10.078;2023-01-24T02:57:22;18.83;;;9.60;;
50102;SDS011;35993;52.604;10.078;2023-01-24T03:00:08;17.90;;;9.90;;
50102;SDS011;35993;52.604;10.078;2023-01-24T03:02:36;17.33;;;9.38;;
50102;SDS011;35993;52.604;10.078;2023-01-24T03:05:02;17.67;;;8.77;;
50102;SDS011;35993;52.604;10.078;2023-01-24T03:07:28;16.85;;;9.05;;
50102;SDS011;35993;52.604;10.078;2023-01-24T03:10:07;14.97;;;8.53;;
50102;SDS011;35993;52.604;10.078;2023-01-24T03:12:35;14.90;;;7.03;;
50102;SDS011;35993;52.604;10.078;2023-01-24T03:15:19;15.00;;;7.50;;
50102;SDS011;35993;52.604;10.078;2023-01-24T03:18:03;13.20;;;7.47;;
50102;SDS011;35993;52.604;10.078;2023-01-24T03:20:47;15.00;;;7.17;;
50102;SDS011;35993;52.604;10.078;2023-01-24T03:23:31;12.03;;;6.33;;
50102;SDS011;35993;52.604;10.078;2023-01-24T03:26:16;13.13;;;7.03;;
50102;SDS011;35993;52.604;10.078;2023-01-24T03:29:05;14.15;;;7.40;;
50102;SDS011;35993;52.604;10.078;2023-01-24T03:31:50;12.30;;;6.90;;
50102;SDS011;35993;52.604;10.078;2023-01-24T03:34:34;14.23;;;7.60;;
50102;SDS011;35993;52.604;10.078;2023-01-24T03:37:11;14.45;;;7.20;;
50102;SDS011;35993;52.604;10.078;2023-01-24T03:39:37;13.13;;;7.70;;
50102;SDS011;35993;52.604;10.078;2023-01-24T03:42:21;12.25;;;6.88;;
50102;SDS011;35993;52.604;10.078;2023-01-24T03:44:46;13.50;;;7.40;;
50102;SDS011;35993;52.604;10.078;2023-01-24T03:47:12;11.60;;;6.30;;
50102;SDS011;35993;52.604;10.078;2023-01-24T03:49:38;11.93;;;6.55;;
50102;SDS011;35993;52.604;10.078;2023-01-24T03:52:22;9.65;;;5.47;;
50102;SDS011;35993;52.604;10.078;2023-01-24T03:54:56;11.00;;;5.67;;
50102;SDS011;35993;52.604;10.078;2023-01-24T03:57:22;10.57;;;5.88;;
50102;SDS011;35993;52.604;10.078;2023-01-24T03:59:51;9.20;;;5.47;;
50102;SDS011;35993;52.604;10.078;2023-01-24T04:02:22;9.43;;;5.07;;
50102;SDS011;35993;52.604;10.078;2023-01-24T04:04:48;8.35;;;4.80;;
50102;SDS011;35993;52.604;10.078;2023-01-24T04:07:32;8.40;;;4.73;;
50102;SDS011;35993;52.604;10.078;2023-01-24T04:10:01;8.85;;;4.85;;
50102;SDS011;35993;52.604;10.078;2023-01-24T04:12:31;6.37;;;3.80;;
50102;SDS011;35993;52.604;10.078;2023-01-24T04:14:58;7.27;;;4.33;;
50102;SDS011;35993;52.604;10.078;2023-01-24T04:17:24;8.00;;;4.03;;
50102;SDS011;35993;52.604;10.078;2023-01-24T04:19:52;8.30;;;4.47;;
50102;SDS011;35993;52.604;10.078;2023-01-24T04:22:17;9.90;;;4.53;;
50102;SDS011;35993;52.604;10.078;2023-01-24T04:24:44;7.40;;;4.40;;
50102;SDS011;35993;52.604;10.078;2023-01-24T04:27:10;8.10;;;4.50;;
50102;SDS011;35993;52.604;10.078;2023-01-24T04:29:50;10.13;;;4.35;;
50102;SDS011;35993;52.604;10.078;2023-01-24T04:32:15;7.23;;;4.07;;
50102;SDS011;35993;52.604;10.078;2023-01-24T04:34:55;7.53;;;4.33;;
50102;SDS011;35993;52.604;10.078;2023-01-24T04:37:36;8.03;;;4.20;;
50102;SDS011;35993;52.604;10.078;2023-01-24T04:40:01;6.80;;;3.95;;
50102;SDS011;35993;52.604;10.078;2023-01-24T04:42:29;6.32;;;3.67;;
50102;SDS011;35993;52.604;10.078;2023-01-24T04:44:56;7.40;;;3.78;;
50102;SDS011;35993;52.604;10.078;2023-01-24T04:47:22;6.10;;;3.80;;
50102;SDS011;35993;52.604;10.078;2023-01-24T04:49:48;8.38;;;4.18;;
50102;SDS011;35993;52.604;10.078;2023-01-24T04:52:17;7.67;;;3.80;;
50102;SDS011;35993;52.604;10.078;2023-01-24T04:55:00;6.07;;;3.60;;
50102;SDS011;35993;52.604;10.078;2023-01-24T04:57:28;7.55;;;3.67;;
50102;SDS011;35993;52.604;10.078;2023-01-24T04:59:54;5.83;;;3.40;;
50102;SDS011;35993;52.604;10.078;2023-01-24T05:02:19;6.85;;;3.55;;
50102;SDS011;35993;52.604;10.078;2023-01-24T05:04:45;6.30;;;3.30;;
50102;SDS011;35993;52.604;10.078;2023-01-24T05:07:12;6.53;;;3.47;;
50102;SDS011;35993;52.604;10.078;2023-01-24T05:09:40;6.40;;;3.42;;
50102;SDS011;35993;52.604;10.078;2023-01-24T05:12:09;6.00;;;3.40;;
50102;SDS011;35993;52.604;10.078;2023-01-24T05:14:35;5.03;;;3.10;;
50102;SDS011;35993;52.604;10.078;2023-01-24T05:17:01;5.85;;;3.38;;
50102;SDS011;35993;52.604;10.078;2023-01-24T05:19:27;5.87;;;3.20;;
50102;SDS011;35993;52.604;10.078;2023-01-24T05:21:52;7.10;;;3.23;;
50102;SDS011;35993;52.604;10.078;2023-01-24T05:24:18;5.40;;;3.20;;
50102;SDS011;35993;52.604;10.078;2023-01-24T05:26:46;4.88;;;2.60;;
50102;SDS011;35993;52.604;10.078;2023-01-24T05:29:15;5.17;;;2.87;;
50102;SDS011;35993;52.604;10.078;2023-01-24T05:31:45;6.03;;;3.10;;
50102;SDS011;35993;52.604;10.078;2023-01-24T05:34:12;5.53;;;2.90;;
50102;SDS011;35993;52.604;10.078;2023-01-24T05:36:38;4.32;;;2.53;;
50102;SDS011;35993;52.604;10.078;2023-01-24T05:39:04;5.97;;;2.93;;
50102;SDS011;35993;52.604;10.078;2023-01-24T05:41:32;5.03;;;3.10;;
50102;SDS011;35993;52.604;10.078;2023-01-24T05:43:58;5.60;;;3.25;;
50102;SDS011;35993;52.604;10.078;2023-01-24T05:46:29;4.45;;;2.70;;
50102;SDS011;35993;52.604;10.078;2023-01-24T05:49:09;5.32;;;3.00;;
50102;SDS011;35993;52.604;10.078;2023-01-24T05:51:34;5.27;;;2.90;;
50102;SDS011;35993;52.604;10.078;2023-01-24T05:54:01;5.90;;;3.13;;
50102;SDS011;35993;52.604;10.078;2023-01-24T05:56:45;4.60;;;2.90;;
50102;SDS011;35993;52.604;10.078;2023-01-24T05:59:11;4.82;;;2.83;;
50102;SDS011;35993;52.604;10.078;2023-01-24T06:01:39;5.90;;;2.75;;
50102;SDS011;35993;52.604;10.078;2023-01-24T06:04:04;5.17;;;2.80;;
50102;SDS011;35993;52.604;10.078;2023-01-24T06:06:30;5.28;;;2.83;;
50102;SDS011;35993;52.604;10.078;2023-01-24T06:08:56;6.00;;;3.10;;
50102;SDS011;35993;52.604;10.078;2023-01-24T06:11:24;4.87;;;2.90;;
50102;SDS011;35993;52.604;10.078;2023-01-24T06:13:57;6.43;;;2.60;;
50102;SDS011;35993;52.604;10.078;2023-01-24T06:16:26;4.30;;;3.10;;
50102;SDS011;35993;52.604;10.078;2023-01-24T06:18:57;6.40;;;3.90;;
50102;SDS011;35993;52.604;10.078;2023-01-24T06:23:59;5.37;;;3.30;;
50102;SDS011;35993;52.604;10.078;2023-01-24T06:26:36;6.23;;;3.57;;
50102;SDS011;35993;52.604;10.078;2023-01-24T06:29:02;8.10;;;3.57;;
50102;SDS011;35993;52.604;10.078;2023-01-24T06:31:38;6.37;;;3.70;;
50102;SDS011;35993;52.604;10.078;2023-01-24T06:37:15;6.53;;;3.50;;
50102;SDS011;35993;52.604;10.078;2023-01-24T06:39:54;4.80;;;3.13;;
50102;SDS011;35993;52.604;10.078;2023-01-24T06:42:20;5.77;;;3.53;;
50102;SDS011;35993;52.604;10.078;2023-01-24T06:44:47;6.23;;;3.60;;
50102;SDS011;35993;52.604;10.078;2023-01-24T06:47:14;6.33;;;3.90;;
50102;SDS011;35993;52.604;10.078;2023-01-24T06:49:41;7.33;;;3.87;;
50102;SDS011;35993;52.604;10.078;2023-01-24T06:52:11;8.10;;;4.30;;
50102;SDS011;35993;52.604;10.078;2023-01-24T06:54:38;7.07;;;4.30;;
50102;SDS011;35993;52.604;10.078;2023-01-24T06:57:04;5.53;;;3.83;;
50102;SDS011;35993;52.604;10.078;2023-01-24T06:59:29;6.03;;;3.80;;
50102;SDS011;35993;52.604;10.078;2023-01-24T07:01:55;5.17;;;3.57;;
50102;SDS011;35993;52.604;10.078;2023-01-24T07:04:20;6.50;;;3.70;;
50102;SDS011;35993;52.604;10.078;2023-01-24T07:06:46;7.77;;;4.20;;
50102;SDS011;35993;52.604;10.078;2023-01-24T07:09:18;8.43;;;4.43;;
50102;SDS011;35993;52.604;10.078;2023-01-24T07:11:45;6.53;;;3.70;;
50102;SDS011;35993;52.604;10.078;2023-01-24T07:14:13;8.57;;;4.27;;
50102;SDS011;35993;52.604;10.078;2023-01-24T07:16:38;6.73;;;4.40;;
50102;SDS011;35993;52.604;10.078;2023-01-24T07:19:04;5.43;;;3.77;;
50102;SDS011;35993;52.604;10.078;2023-01-24T07:21:32;7.03;;;3.83;;
50102;SDS011;35993;52.604;10.078;2023-01-24T07:24:09;6.37;;;3.60;;
50102;SDS011;35993;52.604;10.078;2023-01-24T07:26:39;6.50;;;4.10;;
50102;SDS011;35993;52.604;10.078;2023-01-24T07:29:05;6.07;;;3.80;;
50102;SDS011;35993;52.604;10.078;2023-01-24T07:31:30;7.47;;;4.57;;
50102;SDS011;35993;52.604;10.078;2023-01-24T07:33:56;6.97;;;4.53;;
50102;SDS011;35993;52.604;10.078;2023-01-24T07:36:21;7.23;;;4.20;;
50102;SDS011;35993;52.604;10.078;2023-01-24T07:38:47;7.50;;;4.57;;
50102;SDS011;35993;52.604;10.078;2023-01-24T07:41:12;7.43;;;4.40;;
50102;SDS011;35993;52.604;10.078;2023-01-24T07:43:38;6.03;;;3.80;;
50102;SDS011;35993;52.604;10.078;2023-01-24T07:46:03;7.05;;;4.35;;
50102;SDS011;35993;52.604;10.078;2023-01-24T07:48:29;6.10;;;3.50;;
50102;SDS011;35993;52.604;10.078;2023-01-24T07:50:58;8.47;;;4.20;;
50102;SDS011;35993;52.604;10.078;2023-01-24T07:53:26;7.90;;;4.20;;
50102;SDS011;35993;52.604;10.078;2023-01-24T07:55:59;9.03;;;4.00;;
50102;SDS011;35993;52.604;10.078;2023-01-24T07:58:26;6.27;;;3.70;;
50102;SDS011;35993;52.604;10.078;2023-01-24T08:00:52;6.67;;;4.10;;
50102;SDS011;35993;52.604;10.078;2023-01-24T08:03:17;7.17;;;4.13;;
50102;SDS011;35993;52.604;10.078;2023-01-24T08:05:44;7.37;;;4.00;;
50102;SDS011;35993;52.604;10.078;2023-01-24T08:08:10;6.43;;;4.23;;
50102;SDS011;35993;52.604;10.078;2023-01-24T08:10:35;5.40;;;3.57;;
50102;SDS011;35993;52.604;10.078;2023-01-24T08:13:01;8.80;;;4.07;;
50102;SDS011;35993;52.604;10.078;2023-01-24T08:15:28;6.93;;;3.87;;
50102;SDS011;35993;52.604;10.078;2023-01-24T08:17:54;5.80;;;3.75;;
50102;SDS011;35993;52.604;10.078;2023-01-24T08:20:19;6.43;;;3.85;;
50102;SDS011;35993;52.604;10.078;2023-01-24T08:22:46;7.95;;;4.00;;
50102;SDS011;35993;52.604;10.078;2023-01-24T08:25:13;7.33;;;3.90;;
50102;SDS011;35993;52.604;10.078;2023-01-24T08:27:42;7.40;;;4.20;;
50102;SDS011;35993;52.604;10.078;2023-01-24T08:30:09;6.60;;;3.93;;
50102;SDS011;35993;52.604;10.078;2023-01-24T08:32:38;8.97;;;4.13;;
50102;SDS011;35993;52.604;10.078;2023-01-24T08:35:04;8.13;;;4.37;;
50102;SDS011;35993;52.604;10.078;2023-01-24T08:37:29;7.57;;;4.17;;
50102;SDS011;35993;52.604;10.078;2023-01-24T08:39:55;6.47;;;4.20;;
50102;SDS011;35993;52.604;10.078;2023-01-24T08:42:22;7.93;;;4.40;;
50102;SDS011;35993;52.604;10.078;2023-01-24T08:44:48;7.57;;;4.27;;
50102;SDS011;35993;52.604;10.078;2023-01-24T08:47:14;8.93;;;4.67;;
50102;SDS011;35993;52.604;10.078;2023-01-24T08:49:39;6.83;;;4.33;;
50102;SDS011;35993;52.604;10.078;2023-01-24T08:52:05;6.95;;;4.63;;
50102;SDS011;35993;52.604;10.078;2023-01-24T08:54:30;7.47;;;4.97;;
50102;SDS011;35993;52.604;10.078;2023-01-24T08:57:05;7.03;;;4.40;;
50102;SDS011;35993;52.604;10.078;2023-01-24T08:59:35;7.10;;;4.20;;
50102;SDS011;35993;52.604;10.078;2023-01-24T09:02:00;6.83;;;4.40;;
50102;SDS011;35993;52.604;10.078;2023-01-24T09:04:26;7.68;;;4.45;;
50102;SDS011;35993;52.604;10.078;2023-01-24T09:06:52;6.83;;;4.40;;
50102;SDS011;35993;52.604;10.078;2023-01-24T09:09:18;7.07;;;4.47;;
50102;SDS011;35993;52.604;10.078;2023-01-24T09:11:44;7.77;;;4.37;;
50102;SDS011;35993;52.604;10.078;2023-01-24T09:14:09;7.97;;;4.53;;
50102;SDS011;35993;52.604;10.078;2023-01-24T09:16:35;8.77;;;4.80;;
50102;SDS011;35993;52.604;10.078;2023-01-24T09:19:01;8.90;;;4.87;;
50102;SDS011;35993;52.604;10.078;2023-01-24T09:21:26;9.47;;;4.87;;
50102;SDS011;35993;52.604;10.078;2023-01-24T09:23:55;7.93;;;5.10;;
50102;SDS011;35993;52.604;10.078;2023-01-24T09:26:21;8.30;;;4.70;;
50102;SDS011;35993;52.604;10.078;2023-01-24T09:28:48;10.13;;;5.33;;
50102;SDS011;35993;52.604;10.078;2023-01-24T09:31:18;9.13;;;5.10;;
50102;SDS011;35993;52.604;10.078;2023-01-24T09:33:43;8.67;;;5.30;;
50102;SDS011;35993;52.604;10.078;2023-01-24T09:36:09;7.50;;;4.70;;
50102;SDS011;35993;52.604;10.078;2023-01-24T09:38:34;8.17;;;5.43;;
50102;SDS011;35993;52.604;10.078;2023-01-24T09:43:59;7.43;;;5.00;;
50102;SDS011;35993;52.604;10.078;2023-01-24T09:47:01;7.97;;;4.80;;
50102;SDS011;35993;52.604;10.078;2023-01-24T09:49:39;8.27;;;4.90;;
50102;SDS011;35993;52.604;10.078;2023-01-24T09:52:09;6.97;;;4.67;;
50102;SDS011;35993;52.604;10.078;2023-01-24T09:54:48;8.43;;;4.97;;
50102;SDS011;35993;52.604;10.078;2023-01-24T09:57:27;6.50;;;4.63;;
50102;SDS011;35993;52.604;10.078;2023-01-24T10:00:03;8.50;;;4.60;;
50102;SDS011;35993;52.604;10.078;2023-01-24T10:02:38;7.80;;;5.17;;
50102;SDS011;35993;52.604;10.078;2023-01-24T10:05:04;8.30;;;5.00;;
50102;SDS011;35993;52.604;10.078;2023-01-24T10:10:26;9.27;;;5.63;;
50102;SDS011;35993;52.604;10.078;2023-01-24T10:18:35;8.27;;;5.13;;
50102;SDS011;35993;52.604;10.078;2023-01-24T10:21:25;10.35;;;6.20;;
50102;SDS011;35993;52.604;10.078;2023-01-24T10:24:02;8.60;;;5.33;;
50102;SDS011;35993;52.604;10.078;2023-01-24T10:26:33;8.63;;;5.60;;
50102;SDS011;35993;52.604;10.078;2023-01-24T10:29:12;9.63;;;5.50;;
50102;SDS011;35993;52.604;10.078;2023-01-24T10:37:06;8.67;;;5.50;;
50102;SDS011;35993;52.604;10.078;2023-01-24T10:39:39;10.10;;;5.68;;
50102;SDS011;35993;52.604;10.078;2023-01-24T10:42:11;11.53;;;6.00;;
50102;SDS011;35993;52.604;10.078;2023-01-24T10:44:40;11.27;;;6.30;;
50102;SDS011;35993;52.604;10.078;2023-01-24T10:49:47;10.10;;;5.77;;
50102;SDS011;35993;52.604;10.078;2023-01-24T10:52:21;8.90;;;5.73;;
50102;SDS011;35993;52.604;10.078;2023-01-24T11:00:02;9.77;;;5.10;;
50102;SDS011;35993;52.604;10.078;2023-01-24T11:02:52;10.07;;;5.70;;
50102;SDS011;35993;52.604;10.078;2023-01-24T11:05:20;8.95;;;5.68;;
50102;SDS011;35993;52.604;10.078;2023-01-24T11:07:53;9.00;;;5.77;;
50102;SDS011;35993;52.604;10.078;2023-01-24T11:10:28;8.63;;;5.40;;
50102;SDS011;35993;52.604;10.078;2023-01-24T11:12:59;9.33;;;6.60;;
50102;SDS011;35993;52.604;10.078;2023-01-24T11:15:30;10.40;;;6.53;;
50102;SDS011;35993;52.604;10.078;2023-01-24T11:20:36;9.00;;;4.90;;
50102;SDS011;35993;52.604;10.078;2023-01-24T11:23:06;9.40;;;5.20;;
50102;SDS011;35993;52.604;10.078;2023-01-24T11:25:55;10.13;;;5.43;;
50102;SDS011;35993;52.604;10.078;2023-01-24T11:28:27;9.67;;;6.27;;
50102;SDS011;35993;52.604;10.078;2023-01-24T11:30:55;10.00;;;5.47;;
50102;SDS011;35993;52.604;10.078;2023-01-24T11:35:59;7.97;;;5.55;;
50102;SDS011;35993;52.604;10.078;2023-01-24T11:38:42;8.38;;;5.22;;
50102;SDS011;35993;52.604;10.078;2023-01-24T11:44:15;9.50;;;6.30;;
50102;SDS011;35993;52.604;10.078;2023-01-24T11:52:41;9.13;;;5.60;;
50102;SDS011;35993;52.604;10.078;2023-01-24T11:55:39;10.27;;;5.60;;
50102;SDS011;35993;52.604;10.078;2023-01-24T12:01:07;9.27;;;5.78;;
50102;SDS011;35993;52.604;10.078;2023-01-24T12:03:44;9.67;;;5.97;;
50102;SDS011;35993;52.604;10.078;2023-01-24T12:09:10;9.30;;;6.53;;
50102;SDS011;35993;52.604;10.078;2023-01-24T12:11:38;8.23;;;5.33;;
50102;SDS011;35993;52.604;10.078;2023-01-24T12:17:05;9.17;;;6.00;;
50102;SDS011;35993;52.604;10.078;2023-01-24T12:19:47;10.23;;;5.65;;
50102;SDS011;35993;52.604;10.078;2023-01-24T12:22:34;9.47;;;5.80;;
50102;SDS011;35993;52.604;10.078;2023-01-24T12:25:05;10.43;;;5.83;;
50102;SDS011;35993;52.604;10.078;2023-01-24T12:27:49;10.43;;;5.80;;
50102;SDS011;35993;52.604;10.078;2023-01-24T12:36:00;9.10;;;5.78;;
50102;SDS011;35993;52.604;10.078;2023-01-24T12:38:51;9.68;;;5.70;;
50102;SDS011;35993;52.604;10.078;2023-01-24T12:41:31;9.70;;;5.88;;
50102;SDS011;35993;52.604;10.078;2023-01-24T12:50:01;11.47;;;6.63;;
50102;SDS011;35993;52.604;10.078;2023-01-24T12:53:12;10.80;;;5.57;;
50102;SDS011;35993;52.604;10.078;2023-01-24T13:00:43;11.55;;;5.93;;
50102;SDS011;35993;52.604;10.078;2023-01-24T13:06:17;9.83;;;6.00;;
50102;SDS011;35993;52.604;10.078;2023-01-24T13:11:31;10.80;;;6.13;;
50102;SDS011;35993;52.604;10.078;2023-01-24T13:19:31;11.93;;;5.90;;
50102;SDS011;35993;52.604;10.078;2023-01-24T13:36:05;10.90;;;6.50;;
50102;SDS011;35993;52.604;10.078;2023-01-24T13:38:39;10.80;;;6.40;;
50102;SDS011;35993;52.604;10.078;2023-01-24T13:41:07;10.00;;;6.30;;
50102;SDS011;35993;52.604;10.078;2023-01-24T13:49:18;11.82;;;6.28;;
50102;SDS011;35993;52.604;10.078;2023-01-24T13:51:45;12.55;;;6.93;;
50102;SDS011;35993;52.604;10.078;2023-01-24T13:59:28;10.95;;;5.93;;
50102;SDS011;35993;52.604;10.078;2023-01-24T14:01:54;12.20;;;6.93;;
50102;SDS011;35993;52.604;10.078;2023-01-24T14:04:38;10.75;;;5.75;;
50102;SDS011;35993;52.604;10.078;2023-01-24T14:07:18;8.75;;;4.60;;
50102;SDS011;35993;52.604;10.078;2023-01-24T14:10:02;9.03;;;4.70;;
50102;SDS011;35993;52.604;10.078;2023-01-24T14:12:31;6.97;;;4.35;;
50102;SDS011;35993;52.604;10.078;2023-01-24T14:17:49;6.23;;;3.80;;
50102;SDS011;35993;52.604;10.078;2023-01-24T14:20:21;5.55;;;3.50;;
50102;SDS011;35993;52.604;10.078;2023-01-24T14:22:50;6.93;;;4.47;;
50102;SDS011;35993;52.604;10.078;2023-01-24T14:28:15;5.60;;;3.30;;
50102;SDS011;35993;52.604;10.078;2023-01-24T14:30:49;7.70;;;3.57;;
50102;SDS011;35993;52.604;10.078;2023-01-24T14:33:23;7.07;;;3.33;;
50102;SDS011;35993;52.604;10.078;2023-01-24T14:38:32;33.10;;;16.03;;
50102;SDS011;35993;52.604;10.078;2023-01-24T14:40:57;5.88;;;3.50;;
50102;SDS011;35993;52.604;10.078;2023-01-24T14:43:26;6.53;;;3.60;;
50102;SDS011;35993;52.604;10.078;2023-01-24T14:46:16;6.27;;;3.37;;
50102;SDS011;35993;52.604;10.078;2023-01-24T14:51:13;5.73;;;3.40;;
50102;SDS011;35993;52.604;10.078;2023-01-24T14:53:45;5.10;;;3.50;;
50102;SDS011;35993;52.604;10.078;2023-01-24T14:56:15;5.57;;;3.53;;
50102;SDS011;35993;52.604;10.078;2023-01-24T14:58:42;6.50;;;3.93;;
50102;SDS011;35993;52.604;10.078;2023-01-24T15:01:24;5.03;;;3.23;;
50102;SDS011;35993;52.604;10.078;2023-01-24T15:03:52;5.95;;;3.65;;
50102;SDS011;35993;52.604;10.078;2023-01-24T15:06:20;6.65;;;4.13;;
50102;SDS011;35993;52.604;10.078;2023-01-24T15:08:47;9.18;;;4.20;;
50102;SDS011;35993;52.604;10.078;2023-01-24T15:11:21;7.00;;;4.40;;
50102;SDS011;35993;52.604;10.078;2023-01-24T15:13:56;7.17;;;4.57;;
50102;SDS011;35993;52.604;10.078;2023-01-24T15:19:00;7.43;;;4.70;;
50102;SDS011;35993;52.604;10.078;2023-01-24T15:21:38;8.77;;;4.80;;
50102;SDS011;35993;52.604;10.078;2023-01-24T15:24:22;7.22;;;4.70;;
50102;SDS011;35993;52.604;10.078;2023-01-24T15:26:50;6.80;;;4.40;;
50102;SDS011;35993;52.604;10.078;2023-01-24T15:33:08;8.13;;;4.65;;
50102;SDS011;35993;52.604;10.078;2023-01-24T15:41:01;8.70;;;5.13;;
50102;SDS011;35993;52.604;10.078;2023-01-24T15:43:59;7.80;;;4.97;;
50102;SDS011;35993;52.604;10.078;2023-01-24T15:46:44;8.90;;;5.40;;
50102;SDS011;35993;52.604;10.078;2023-01-24T15:49:37;10.40;;;5.18;;
50102;SDS011;35993;52.604;10.078;2023-01-24T15:52:12;8.75;;;4.72;;
50102;SDS011;35993;52.604;10.078;2023-01-24T15:54:41;8.37;;;5.03;;
50102;SDS011;35993;52.604;10.078;2023-01-24T15:57:14;11.07;;;4.80;;
50102;SDS011;35993;52.604;10.078;2023-01-24T15:59:43;9.50;;;5.30;;
50102;SDS011;35993;52.604;10.078;2023-01-24T16:02:12;8.50;;;4.63;;
50102;SDS011;35993;52.604;10.078;2023-01-24T16:04:38;8.17;;;4.63;;
50102;SDS011;35993;52.604;10.078;2023-01-24T16:07:04;9.53;;;5.40;;
50102;SDS011;35993;52.604;10.078;2023-01-24T16:09:30;8.07;;;4.90;;
50102;SDS011;35993;52.604;10.078;2023-01-24T16:11:56;8.60;;;5.30;;
50102;SDS011;35993;52.604;10.078;2023-01-24T16:14:23;8.43;;;5.47;;
50102;SDS011;35993;52.604;10.078;2023-01-24T16:16:50;11.52;;;7.18;;
50102;SDS011;35993;52.604;10.078;2023-01-24T16:19:19;11.15;;;6.28;;
50102;SDS011;35993;52.604;10.078;2023-01-24T16:21:48;8.40;;;5.23;;
50102;SDS011;35993;52.604;10.078;2023-01-24T16:24:15;8.07;;;4.87;;
50102;SDS011;35993;52.604;10.078;2023-01-24T16:26:44;7.93;;;5.53;;
50102;SDS011;35993;52.604;10.078;2023-01-24T16:29:14;9.02;;;5.30;;
50102;SDS011;35993;52.604;10.078;2023-01-24T16:31:45;9.10;;;5.37;;
50102;SDS011;35993;52.604;10.078;2023-01-24T16:34:11;9.33;;;5.37;;
50102;SDS011;35993;52.604;10.078;2023-01-24T16:36:37;10.40;;;5.97;;
50102;SDS011;35993;52.604;10.078;2023-01-24T16:39:03;9.27;;;5.70;;
50102;SDS011;35993;52.604;10.078;2023-01-24T16:41:30;11.87;;;6.63;;
50102;SDS011;35993;52.604;10.078;2023-01-24T16:43:55;13.63;;;6.67;;
50102;SDS011;35993;52.604;10.078;2023-01-24T16:46:21;12.27;;;6.33;;
50102;SDS011;35993;52.604;10.078;2023-01-24T16:48:47;12.73;;;7.13;;
50102;SDS011;35993;52.604;10.078;2023-01-24T16:51:14;9.83;;;5.77;;
50102;SDS011;35993;52.604;10.078;2023-01-24T16:53:41;10.50;;;5.93;;
50102;SDS011;35993;52.604;10.078;2023-01-24T16:56:07;9.83;;;6.17;;
50102;SDS011;35993;52.604;10.078;2023-01-24T16:58:32;9.40;;;5.67;;
50102;SDS011;35993;52.604;10.078;2023-01-24T17:00:59;9.97;;;6.07;;
50102;SDS011;35993;52.604;10.078;2023-01-24T17:03:37;12.17;;;6.33;;
50102;SDS011;35993;52.604;10.078;2023-01-24T17:06:10;12.30;;;6.10;;